Time;durP1;ratioP1;P1;durP2;ratioP2;P2;SDS_P1;SDS_P2;PMS_P1;PMS_P2;Temp;Humidity;BMP_temperature;BMP_pressure;BME280_temperature;BME280_humidity;BME280_pressure;Samples;Min_cycle;Max_cycle;Signal;HPM_P1;HPM_P2
2023/09/19 00:01:14;;;;;;;9.55;2.00;;;16.10;71.80;;;;;;5044759;28;20049;-76
2023/09/19 00:03:42;;;;;;;11.00;2.25;;;16.10;69.70;;;;;;5046234;28;20044;-76
2023/09/19 00:06:08;;;;;;;6.50;1.85;;;16.00;68.30;;;;;;5031902;28;20063;-75
2023/09/19 00:08:34;;;;;;;7.95;2.33;;;16.10;66.90;;;;;;5046779;28;20057;-75
2023/09/19 00:11:05;;;;;;;7.72;2.13;;;16.10;61.40;;;;;;5044111;28;20491;-76
2023/09/19 00:13:35;;;;;;;6.82;1.70;;;16.10;61.60;;;;;;5029881;28;21481;-76
2023/09/19 00:16:07;;;;;;;8.82;2.10;;;16.10;58.90;;;;;;5042676;28;20055;-76
2023/09/19 00:18:34;;;;;;;10.23;2.08;;;16.10;56.00;;;;;;5043350;28;20041;-76
2023/09/19 00:21:01;;;;;;;8.43;2.30;;;16.00;53.60;;;;;;5047244;28;20469;-76
2023/09/19 00:23:28;;;;;;;11.13;2.28;;;16.00;53.70;;;;;;5051194;28;20091;-76
2023/09/19 00:25:57;;;;;;;5.93;1.60;;;16.00;50.60;;;;;;5032042;28;20053;-76
2023/09/19 00:28:24;;;;;;;7.03;1.50;;;16.10;45.00;;;;;;5050723;28;20529;-76
2023/09/19 00:30:50;;;;;;;5.47;1.50;;;16.00;43.70;;;;;;5053248;28;20075;-76
2023/09/19 00:33:16;;;;;;;8.60;2.00;;;16.00;43.60;;;;;;5034912;28;20067;-75
2023/09/19 00:35:52;;;;;;;7.78;1.85;;;16.00;42.80;;;;;;5050105;28;20052;-78
2023/09/19 00:38:26;;;;;;;6.93;1.92;;;16.10;41.50;;;;;;5055863;28;20167;-75
2023/09/19 00:40:53;;;;;;;5.07;1.90;;;16.10;48.40;;;;;;5066614;28;20056;-76
2023/09/19 00:43:20;;;;;;;11.10;2.08;;;16.10;50.60;;;;;;5054154;28;20044;-76
2023/09/19 00:45:49;;;;;;;6.28;1.60;;;16.10;49.70;;;;;;5030860;28;20040;-75
2023/09/19 00:48:16;;;;;;;6.25;1.80;;;16.10;50.20;;;;;;5052957;28;20150;-75
2023/09/19 00:50:43;;;;;;;6.57;1.65;;;16.10;49.90;;;;;;5055259;28;20044;-75
2023/09/19 00:53:13;;;;;;;9.32;1.88;;;15.90;51.30;;;;;;5052827;28;20063;-75
2023/09/19 00:55:42;;;;;;;7.03;1.80;;;16.10;52.80;;;;;;5013739;28;20579;-75
2023/09/19 00:58:08;;;;;;;5.85;1.70;;;16.10;52.30;;;;;;5053069;28;20676;-76
2023/09/19 01:00:36;;;;;;;13.63;1.85;;;16.10;52.00;;;;;;5031249;28;20090;-75
2023/09/19 01:03:02;;;;;;;8.43;2.53;;;16.10;53.00;;;;;;5035358;28;20052;-76
2023/09/19 01:05:28;;;;;;;8.60;2.13;;;16.10;53.60;;;;;;5050080;28;20113;-76
2023/09/19 01:07:54;;;;;;;12.13;2.03;;;16.10;52.40;;;;;;5052194;28;20207;-76
2023/09/19 01:10:21;;;;;;;10.27;2.25;;;16.10;53.70;;;;;;5051309;28;20044;-75
2023/09/19 01:13:21;;;;;;;9.02;1.80;;;16.10;55.40;;;;;;5066779;28;20067;-76
2023/09/19 01:16:24;;;;;;;12.18;2.08;;;16.00;55.40;;;;;;5048273;28;20450;-75
2023/09/19 01:19:07;;;;;;;7.53;2.00;;;16.00;52.00;;;;;;5029981;28;20446;-75
2023/09/19 01:21:55;;;;;;;10.07;2.08;;;16.00;49.10;;;;;;5051239;28;20428;-75
2023/09/19 01:24:52;;;;;;;7.93;1.73;;;16.10;52.90;;;;;;5051436;28;20047;-75
2023/09/19 01:27:23;;;;;;;8.13;1.77;;;16.10;53.90;;;;;;5050347;28;20130;-73
2023/09/19 01:29:50;;;;;;;7.55;1.98;;;16.00;54.60;;;;;;5049374;28;20227;-75
2023/09/19 01:32:21;;;;;;;13.52;2.55;;;16.10;51.70;;;;;;5053053;28;20040;-75
2023/09/19 01:34:48;;;;;;;7.75;1.63;;;16.10;47.00;;;;;;5049147;28;20140;-75
2023/09/19 01:37:27;;;;;;;7.25;1.88;;;16.00;48.40;;;;;;5023481;28;20057;-75
2023/09/19 01:40:11;;;;;;;9.13;1.75;;;16.10;50.30;;;;;;5027517;28;20048;-76
2023/09/19 01:42:56;;;;;;;8.95;1.60;;;16.10;44.30;;;;;;5044768;28;20044;-76
2023/09/19 01:45:40;;;;;;;7.43;1.75;;;16.10;44.80;;;;;;5047236;28;20465;-75
2023/09/19 01:48:26;;;;;;;7.07;1.42;;;16.10;45.00;;;;;;5051231;28;20067;-75
2023/09/19 01:51:05;;;;;;;8.27;1.80;;;16.00;37.50;;;;;;5052833;28;20044;-73
2023/09/19 01:53:49;;;;;;;8.75;1.80;;;16.00;24.20;;;;;;5053882;28;20060;-76
2023/09/19 01:56:25;;;;;;;8.10;1.77;;;16.10;24.50;;;;;;5048073;28;20048;-76
2023/09/19 01:58:56;;;;;;;9.18;1.88;;;16.10;26.80;;;;;;5051484;28;20618;-75
2023/09/19 02:01:24;;;;;;;8.95;1.98;;;16.10;28.70;;;;;;5050765;28;20515;-75
2023/09/19 02:03:51;;;;;;;9.32;2.53;;;16.10;33.60;;;;;;5027710;28;20597;-75
2023/09/19 02:06:18;;;;;;;6.68;1.85;;;16.10;40.40;;;;;;5034461;28;20506;-75
2023/09/19 02:08:45;;;;;;;8.65;1.67;;;16.00;44.40;;;;;;5036687;28;20052;-75
2023/09/19 02:11:12;;;;;;;8.02;1.90;;;16.10;46.80;;;;;;5027853;28;20079;-75
2023/09/19 02:13:39;;;;;;;5.35;1.95;;;16.00;45.60;;;;;;5047983;28;20083;-75
2023/09/19 02:16:07;;;;;;;6.40;1.70;;;16.00;45.40;;;;;;5047971;28;20056;-75
2023/09/19 02:18:35;;;;;;;7.65;1.67;;;16.00;38.80;;;;;;5048691;28;20394;-76
2023/09/19 02:21:03;;;;;;;7.95;1.90;;;16.10;32.40;;;;;;5051772;28;20050;-74
2023/09/19 02:23:30;;;;;;;5.43;1.70;;;16.00;28.70;;;;;;5048228;28;20105;-76
2023/09/19 02:26:05;;;;;;;7.30;1.70;;;16.00;29.80;;;;;;5026630;28;20060;-75
2023/09/19 02:28:31;;;;;;;5.93;1.67;;;16.00;30.00;;;;;;5038724;28;20055;-75
2023/09/19 02:30:58;;;;;;;6.75;1.58;;;16.00;22.80;;;;;;5051255;28;20083;-75
2023/09/19 02:33:24;;;;;;;5.82;1.60;;;16.00;13.50;;;;;;5046867;28;20041;-75
2023/09/19 02:35:54;;;;;;;5.07;1.58;;;16.00;14.60;;;;;;5044664;28;20044;-76
2023/09/19 02:38:24;;;;;;;8.95;1.92;;;16.00;13.60;;;;;;5013852;28;20048;-76
2023/09/19 02:40:50;;;;;;;5.75;1.63;;;16.00;19.00;;;;;;5064709;28;20047;-75
2023/09/19 02:43:19;;;;;;;6.80;1.60;;;15.90;19.70;;;;;;5048803;28;20913;-76
2023/09/19 02:45:46;;;;;;;6.72;1.73;;;15.90;21.30;;;;;;5027978;28;20047;-76
2023/09/19 02:48:15;;;;;;;8.43;1.80;;;15.90;27.20;;;;;;5050285;28;20060;-75
2023/09/19 02:50:41;;;;;;;10.13;2.22;;;15.80;33.60;;;;;;5017971;28;20059;-76
2023/09/19 02:53:07;;;;;;;9.90;2.13;;;15.80;39.60;;;;;;5038220;28;20536;-75
2023/09/19 02:55:33;;;;;;;9.55;2.25;;;15.80;40.70;;;;;;5045506;28;20056;-76
2023/09/19 02:58:01;;;;;;;11.18;1.92;;;15.80;42.60;;;;;;5046390;28;20049;-75
2023/09/19 03:00:30;;;;;;;10.10;2.03;;;15.70;44.40;;;;;;5053491;28;20086;-76
2023/09/19 03:02:56;;;;;;;10.32;2.08;;;15.70;47.00;;;;;;5049947;28;20063;-76
2023/09/19 03:05:23;;;;;;;6.00;1.85;;;15.70;46.10;;;;;;5044856;28;20552;-75
2023/09/19 03:07:53;;;;;;;10.57;2.20;;;15.70;43.80;;;;;;5042740;28;20071;-75
2023/09/19 03:10:19;;;;;;;6.82;2.05;;;15.70;41.60;;;;;;5043170;28;20463;-75
2023/09/19 03:12:46;;;;;;;7.50;1.83;;;15.70;45.00;;;;;;5046172;28;20060;-75
2023/09/19 03:15:15;;;;;;;8.27;1.85;;;15.70;48.30;;;;;;5045034;28;20124;-75
2023/09/19 03:17:44;;;;;;;5.97;2.05;;;15.70;49.80;;;;;;5047927;28;20084;-76
2023/09/19 03:20:12;;;;;;;5.50;1.92;;;15.70;52.70;;;;;;5029452;28;20538;-76
2023/09/19 03:22:39;;;;;;;6.72;1.88;;;15.70;54.80;;;;;;5010444;28;20143;-75
2023/09/19 03:25:07;;;;;;;11.07;2.50;;;15.70;56.50;;;;;;5028566;28;20047;-76
2023/09/19 03:27:36;;;;;;;8.43;2.20;;;15.70;59.30;;;;;;5049509;28;20513;-75
2023/09/19 03:30:08;;;;;;;6.93;1.58;;;15.70;60.40;;;;;;5033016;28;20048;-76
2023/09/19 03:32:43;;;;;;;9.82;1.75;;;15.70;58.40;;;;;;5045550;28;20044;-75
2023/09/19 03:35:11;;;;;;;10.27;2.10;;;15.70;60.40;;;;;;5027052;28;20432;-75
2023/09/19 03:37:36;;;;;;;7.97;2.10;;;15.70;62.00;;;;;;5034042;28;20052;-75
2023/09/19 03:40:04;;;;;;;7.68;1.90;;;15.70;62.40;;;;;;5042749;28;20051;-76
2023/09/19 03:42:31;;;;;;;7.32;2.00;;;15.70;62.20;;;;;;5040786;28;20059;-77
2023/09/19 03:44:57;;;;;;;9.27;1.70;;;15.80;62.40;;;;;;5028223;28;20048;-77
2023/09/19 03:47:23;;;;;;;8.48;1.80;;;15.70;60.40;;;;;;5029148;28;20741;-75
2023/09/19 03:49:49;;;;;;;7.90;2.05;;;15.70;60.80;;;;;;5048229;28;20162;-76
2023/09/19 03:52:17;;;;;;;7.28;2.15;;;15.70;61.90;;;;;;5049951;28;20502;-75
2023/09/19 03:54:44;;;;;;;10.30;1.92;;;15.70;61.50;;;;;;5061560;28;20044;-75
2023/09/19 03:57:12;;;;;;;8.77;2.00;;;15.70;60.60;;;;;;5046512;28;20095;-76
2023/09/19 03:59:42;;;;;;;7.50;1.83;;;15.70;60.10;;;;;;5047994;28;20078;-76
2023/09/19 04:02:21;;;;;;;9.73;2.53;;;15.70;59.00;;;;;;5033609;28;20127;-75
2023/09/19 04:04:50;;;;;;;;;;;15.80;59.60;;;;;;5046916;28;20110;-75
2023/09/19 04:07:16;;;;;;;9.23;2.10;;;15.80;54.80;;;;;;5048019;28;19928;-76
2023/09/19 04:09:42;;;;;;;11.65;2.42;;;15.80;55.80;;;;;;5062269;28;20051;-76
2023/09/19 04:12:11;;;;;;;11.27;2.17;;;15.80;55.10;;;;;;5045299;28;20036;-75
2023/09/19 04:14:37;;;;;;;8.85;2.00;;;15.80;55.70;;;;;;5039274;28;20145;-76
2023/09/19 04:17:05;;;;;;;10.52;2.40;;;15.80;55.50;;;;;;5011644;28;20135;-76
2023/09/19 04:19:31;;;;;;;8.52;2.03;;;15.80;55.50;;;;;;5051010;28;20078;-76
2023/09/19 04:21:59;;;;;;;10.75;1.98;;;15.80;54.40;;;;;;5061061;28;20071;-76
2023/09/19 04:24:25;;;;;;;9.20;2.30;;;15.90;54.90;;;;;;5031466;28;20045;-76
2023/09/19 04:26:52;;;;;;;11.48;2.20;;;15.90;54.80;;;;;;5028679;28;20055;-76
2023/09/19 04:29:19;;;;;;;11.23;2.22;;;15.90;54.00;;;;;;5065424;28;20411;-76
2023/09/19 04:31:45;;;;;;;6.68;2.55;;;15.90;51.30;;;;;;5020495;28;20049;-76
2023/09/19 04:34:17;;;;;;;8.77;2.10;;;15.90;50.50;;;;;;5044160;28;20209;-76
2023/09/19 04:36:45;;;;;;;13.40;2.20;;;15.90;50.70;;;;;;5049139;28;20048;-76
2023/09/19 04:39:13;;;;;;;9.32;2.33;;;15.90;51.30;;;;;;5043916;28;20080;-76
2023/09/19 04:41:41;;;;;;;10.13;2.08;;;15.90;52.80;;;;;;5060919;28;20902;-76
2023/09/19 04:44:07;;;;;;;12.63;2.30;;;15.90;52.70;;;;;;5052258;28;20052;-76
2023/09/19 04:46:34;;;;;;;12.70;2.47;;;15.90;55.80;;;;;;5027398;28;20055;-76
2023/09/19 04:49:00;;;;;;;10.73;2.42;;;15.90;57.60;;;;;;5044742;28;20142;-75
2023/09/19 04:51:29;;;;;;;8.45;2.42;;;15.90;59.30;;;;;;5001126;28;20041;-75
2023/09/19 04:53:55;;;;;;;12.02;1.60;;;15.90;58.10;;;;;;5061627;28;20053;-75
2023/09/19 04:56:21;;;;;;;8.25;2.42;;;15.90;56.00;;;;;;5060647;28;20037;-76
2023/09/19 04:58:47;;;;;;;9.00;2.33;;;15.90;54.70;;;;;;5059435;28;20052;-75
2023/09/19 05:01:15;;;;;;;12.52;2.08;;;15.80;54.60;;;;;;5041474;28;20048;-76
2023/09/19 05:03:52;;;;;;;9.30;2.00;;;15.80;53.80;;;;;;5032635;28;20112;-76
2023/09/19 05:06:20;;;;;;;10.05;2.38;;;15.80;55.50;;;;;;5031840;28;20044;-75
2023/09/19 05:08:50;;;;;;;11.52;3.08;;;15.80;57.60;;;;;;5068134;28;20056;-75
2023/09/19 05:11:24;;;;;;;10.55;2.28;;;15.80;59.10;;;;;;5069898;28;20040;-76
2023/09/19 05:13:50;;;;;;;7.88;2.15;;;15.20;58.60;;;;;;5023186;28;20044;-76
2023/09/19 05:16:16;;;;;;;9.60;2.30;;;15.80;60.90;;;;;;5049381;28;20464;-75
2023/09/19 05:18:42;;;;;;;6.05;2.03;;;15.80;60.50;;;;;;5054536;28;20127;-76
2023/09/19 05:21:08;;;;;;;12.90;2.38;;;15.80;59.70;;;;;;5067550;28;20396;-76
2023/09/19 05:23:34;;;;;;;12.10;2.17;;;15.80;56.50;;;;;;5033937;28;20146;-76
2023/09/19 05:26:00;;;;;;;6.75;1.55;;;15.90;53.50;;;;;;5047055;28;20067;-76
2023/09/19 05:28:26;;;;;;;8.20;1.90;;;15.80;54.20;;;;;;5066128;28;20511;-76
2023/09/19 05:30:53;;;;;;;9.93;1.85;;;15.80;56.70;;;;;;5045075;28;20387;-76
2023/09/19 05:33:20;;;;;;;11.80;2.17;;;15.80;57.00;;;;;;5032803;28;20127;-75
2023/09/19 05:35:47;;;;;;;7.75;2.10;;;15.80;53.90;;;;;;5048983;28;20053;-76
2023/09/19 05:38:13;;;;;;;9.00;1.90;;;15.30;50.00;;;;;;5051995;28;20072;-75
2023/09/19 05:40:45;;;;;;;11.35;2.30;;;15.90;50.20;;;;;;5064601;28;20056;-76
2023/09/19 05:43:11;;;;;;;9.18;2.40;;;15.90;52.70;;;;;;5027598;28;20473;-76
2023/09/19 05:45:37;;;;;;;9.73;2.40;;;15.90;52.40;;;;;;5045660;28;20052;-75
2023/09/19 05:48:15;;;;;;;9.52;1.95;;;15.90;54.10;;;;;;5026464;28;20074;-75
2023/09/19 05:50:42;;;;;;;11.25;2.35;;;16.00;53.60;;;;;;5021034;28;20118;-75
2023/09/19 05:53:14;;;;;;;10.98;2.13;;;16.00;52.60;;;;;;5048854;28;20560;-75
2023/09/19 05:55:40;;;;;;;9.68;2.30;;;16.00;48.90;;;;;;5060388;28;20087;-76
2023/09/19 05:58:06;;;;;;;9.20;2.00;;;16.00;44.60;;;;;;5038493;28;20040;-76
2023/09/19 06:00:32;;;;;;;10.05;2.67;;;16.00;44.50;;;;;;5055660;28;20047;-76
2023/09/19 06:02:58;;;;;;;9.82;2.17;;;16.10;47.60;;;;;;5034026;28;20051;-75
2023/09/19 06:05:31;;;;;;;9.32;2.50;;;16.00;49.30;;;;;;5028554;28;20524;-75
2023/09/19 06:08:00;;;;;;;9.68;2.15;;;16.10;49.90;;;;;;5048731;28;20056;-75
2023/09/19 06:10:28;;;;;;;8.60;1.92;;;16.10;47.20;;;;;;5023714;28;20487;-76
2023/09/19 06:12:55;;;;;;;9.10;2.22;;;16.10;42.30;;;;;;5066232;28;20302;-76
2023/09/19 06:15:24;;;;;;;8.05;1.70;;;16.10;41.60;;;;;;5029743;28;20067;-77
2023/09/19 06:17:55;;;;;;;8.80;2.53;;;16.10;42.90;;;;;;5037792;28;20044;-74
2023/09/19 06:20:23;;;;;;;9.68;2.22;;;16.10;46.80;;;;;;5044003;28;20067;-76
2023/09/19 06:22:50;;;;;;;9.27;2.10;;;16.10;49.80;;;;;;5042044;28;20048;-76
2023/09/19 06:25:19;;;;;;;9.80;2.40;;;16.20;52.30;;;;;;5043802;28;20047;-76
2023/09/19 06:27:53;;;;;;;7.90;2.00;;;16.20;53.60;;;;;;5028521;28;20036;-76
2023/09/19 06:30:20;;;;;;;12.95;2.25;;;16.20;53.90;;;;;;5044830;28;20049;-75
2023/09/19 06:32:46;;;;;;;7.32;2.00;;;16.20;53.20;;;;;;5052184;28;20060;-76
2023/09/19 06:35:12;;;;;;;6.65;1.75;;;16.30;48.70;;;;;;5064860;28;20777;-76
2023/09/19 06:37:39;;;;;;;8.40;2.20;;;16.20;43.60;;;;;;5048122;28;20083;-76
2023/09/19 06:40:15;;;;;;;8.63;2.28;;;16.30;46.30;;;;;;5052858;28;20108;-76
2023/09/19 06:42:50;;;;;;;8.85;1.77;;;16.30;47.30;;;;;;5028898;28;20052;-76
2023/09/19 06:45:19;;;;;;;14.25;2.55;;;16.30;43.80;;;;;;5047426;28;20357;-76
2023/09/19 06:47:49;;;;;;;16.02;2.25;;;16.30;43.40;;;;;;5057233;28;20055;-76
2023/09/19 06:50:15;;;;;;;8.27;2.25;;;16.30;44.50;;;;;;5038533;28;20147;-76
2023/09/19 06:52:41;;;;;;;10.57;2.33;;;16.30;45.50;;;;;;5050913;28;20055;-76
2023/09/19 06:55:09;;;;;;;12.80;2.63;;;16.40;49.20;;;;;;5032932;28;20047;-76
2023/09/19 06:57:35;;;;;;;10.68;2.47;;;16.40;50.60;;;;;;5033595;28;20059;-76
2023/09/19 07:00:01;;;;;;;12.77;2.22;;;16.40;48.60;;;;;;5030112;28;20044;-76
2023/09/19 07:02:29;;;;;;;10.98;3.08;;;16.40;43.20;;;;;;5045364;28;20052;-75
2023/09/19 07:04:55;;;;;;;8.90;2.35;;;16.30;41.20;;;;;;5022564;28;20048;-76
2023/09/19 07:07:20;;;;;;;10.20;2.15;;;16.40;37.70;;;;;;5016544;28;20103;-76
2023/09/19 07:09:48;;;;;;;9.15;2.40;;;16.40;30.90;;;;;;5047452;28;20047;-75
2023/09/19 07:12:14;;;;;;;11.93;2.30;;;16.40;31.70;;;;;;5026747;28;20051;-76
2023/09/19 07:14:40;;;;;;;10.68;2.45;;;16.40;30.60;;;;;;5026343;28;20048;-76
2023/09/19 07:17:06;;;;;;;9.88;1.90;;;16.40;28.40;;;;;;5051646;28;20055;-76
2023/09/19 07:19:31;;;;;;;7.18;1.90;;;16.40;23.10;;;;;;5030970;28;20039;-75
2023/09/19 07:21:59;;;;;;;9.02;2.17;;;16.40;22.20;;;;;;5068114;28;20044;-76
2023/09/19 07:24:26;;;;;;;8.38;2.00;;;16.50;22.70;;;;;;5050948;28;20081;-77
2023/09/19 07:26:52;;;;;;;11.00;2.72;;;16.60;24.80;;;;;;5067844;28;20193;-76
2023/09/19 07:29:18;;;;;;;8.40;2.38;;;16.70;26.60;;;;;;5069456;28;20527;-75
2023/09/19 07:31:44;;;;;;;9.65;2.03;;;16.70;28.20;;;;;;5053816;28;20040;-76
2023/09/19 07:34:10;;;;;;;8.27;2.45;;;16.80;27.30;;;;;;5052148;28;20588;-76
2023/09/19 07:36:37;;;;;;;12.52;2.70;;;16.90;26.40;;;;;;5046828;28;20106;-76
2023/09/19 07:39:06;;;;;;;8.15;1.85;;;17.00;23.90;;;;;;5047892;28;20048;-77
2023/09/19 07:41:33;;;;;;;10.80;2.65;;;17.00;21.50;;;;;;5044884;28;20521;-77
2023/09/19 07:43:58;;;;;;;11.70;2.58;;;17.10;19.70;;;;;;5038206;28;20080;-77
2023/09/19 07:46:25;;;;;;;13.90;2.33;;;17.10;22.60;;;;;;5028474;28;20083;-76
2023/09/19 07:48:51;;;;;;;10.43;2.35;;;17.10;20.50;;;;;;5044971;28;20052;-77
2023/09/19 07:51:17;;;;;;;10.88;2.10;;;17.20;16.40;;;;;;5046076;28;20126;-77
2023/09/19 07:53:43;;;;;;;11.20;2.40;;;17.30;14.60;;;;;;5046343;28;20153;-77
2023/09/19 07:56:10;;;;;;;8.85;1.92;;;17.40;18.30;;;;;;5031032;28;20056;-76
2023/09/19 07:58:40;;;;;;;12.20;2.40;;;17.40;16.30;;;;;;5065344;28;20458;-77
2023/09/19 08:01:07;;;;;;;14.18;3.08;;;17.50;18.00;;;;;;5021740;28;20079;-77
2023/09/19 08:03:34;;;;;;;11.35;2.38;;;17.50;20.50;;;;;;5051074;28;20128;-76
2023/09/19 08:06:04;;;;;;;13.45;2.45;;;17.50;21.30;;;;;;5033876;28;20044;-77
2023/09/19 08:08:30;;;;;;;12.13;2.75;;;17.50;22.10;;;;;;5022212;28;20057;-76
2023/09/19 08:10:57;;;;;;;12.38;2.70;;;17.40;24.20;;;;;;5048501;28;20045;-76
2023/09/19 08:13:24;;;;;;;10.27;2.50;;;17.40;26.10;;;;;;5050372;28;20051;-77
2023/09/19 08:15:53;;;;;;;14.35;2.95;;;17.30;18.20;;;;;;5031419;28;20601;-76
2023/09/19 08:18:19;;;;;;;11.65;2.33;;;17.40;17.50;;;;;;5047059;28;20043;-76
2023/09/19 08:20:52;;;;;;;10.88;2.40;;;17.60;18.30;;;;;;5050873;28;20084;-77
2023/09/19 08:23:19;;;;;;;13.15;2.78;;;17.70;9.00;;;;;;5030044;28;20501;-76
2023/09/19 08:25:46;;;;;;;11.80;2.40;;;17.80;7.70;;;;;;5048215;28;20076;-76
2023/09/19 08:28:14;;;;;;;13.38;2.60;;;17.80;1.00;;;;;;5051009;28;20043;-77
2023/09/19 08:30:40;;;;;;;12.00;2.20;;;17.70;1.00;;;;;;5046227;28;20162;-77
2023/09/19 08:33:07;;;;;;;10.02;2.30;;;17.80;1.00;;;;;;5045915;28;20063;-77
2023/09/19 08:35:33;;;;;;;9.60;2.30;;;17.90;1.00;;;;;;5029811;28;20085;-77
2023/09/19 08:38:03;;;;;;;11.60;3.28;;;18.00;1.00;;;;;;5019225;28;20129;-77
2023/09/19 08:40:33;;;;;;;15.25;2.67;;;18.00;1.00;;;;;;5031221;28;20055;-77
2023/09/19 08:43:00;;;;;;;9.00;2.35;;;18.10;3.60;;;;;;5050396;28;20559;-76
2023/09/19 08:45:29;;;;;;;9.02;2.08;;;18.10;1.00;;;;;;5054088;28;20048;-75
2023/09/19 08:48:07;;;;;;;9.02;2.30;;;18.10;1.10;;;;;;5049311;28;20467;-75
2023/09/19 08:50:49;;;;;;;14.68;2.33;;;18.20;1.00;;;;;;5027152;28;20049;-76
2023/09/19 08:53:27;;;;;;;11.20;2.67;;;18.40;1.00;;;;;;5048889;28;20067;-76
2023/09/19 08:55:56;;;;;;;12.20;2.90;;;18.60;1.60;;;;;;5055190;28;20131;-76
2023/09/19 08:58:29;;;;;;;8.43;2.15;;;18.80;1.00;;;;;;5052860;28;20076;-75
2023/09/19 09:00:58;;;;;;;11.05;2.50;;;18.80;1.00;;;;;;5046768;28;20059;-76
2023/09/19 09:03:25;;;;;;;9.32;2.72;;;19.00;1.00;;;;;;5005983;28;20101;-76
2023/09/19 09:05:52;;;;;;;10.60;2.40;;;19.00;1.00;;;;;;5065368;28;20056;-76
2023/09/19 09:08:21;;;;;;;12.50;2.30;;;19.20;1.00;;;;;;5040417;28;20064;-75
2023/09/19 09:10:48;;;;;;;8.00;2.38;;;19.30;1.00;;;;;;5066611;28;20052;-75
2023/09/19 09:13:15;;;;;;;10.93;3.05;;;19.50;1.00;;;;;;5042370;28;20033;-76
2023/09/19 09:15:44;;;;;;;9.43;2.20;;;19.60;1.00;;;;;;5030787;28;20068;-76
2023/09/19 09:18:10;;;;;;;9.88;2.53;;;19.80;1.00;;;;;;5053862;28;20118;-76
2023/09/19 09:20:36;;;;;;;11.82;2.33;;;19.70;1.00;;;;;;5029772;28;20266;-76
2023/09/19 09:23:04;;;;;;;10.95;2.30;;;19.80;1.00;;;;;;5038184;28;20140;-76
2023/09/19 09:25:56;;;;;;;10.93;2.92;;;19.80;1.00;;;;;;5050141;28;20498;-76
2023/09/19 09:28:27;;;;;;;10.00;2.72;;;19.70;1.00;;;;;;5052018;28;20403;-76
2023/09/19 09:30:54;;;;;;;12.65;2.83;;;19.90;1.00;;;;;;5051925;28;20055;-76
2023/09/19 09:33:21;;;;;;;10.23;2.58;;;19.90;1.00;;;;;;5055654;28;20040;-77
2023/09/19 09:35:51;;;;;;;10.07;2.80;;;19.90;1.00;;;;;;5051426;28;20325;-76
2023/09/19 09:38:27;;;;;;;11.13;2.85;;;19.80;1.00;;;;;;5047405;28;20048;-76
2023/09/19 09:41:06;;;;;;;8.07;2.47;;;19.70;1.00;;;;;;5049955;28;20051;-76
2023/09/19 09:43:36;;;;;;;8.90;2.60;;;19.60;1.00;;;;;;5047642;28;20083;-76
2023/09/19 09:51:39;;;;;;;8.25;2.45;;;19.50;10.70;;;;;;5049798;28;20052;-75
2023/09/19 09:54:17;;;;;;;12.00;2.35;;;19.40;10.70;;;;;;5047873;28;20049;-76
2023/09/19 09:57:13;;;;;;;10.48;2.88;;;19.50;1.00;;;;;;5049938;28;20057;-76
2023/09/19 10:00:42;;;;;;;12.13;2.45;;;19.40;2.20;;;;;;5026925;28;20478;-77
2023/09/19 10:02:46;;;;;;;11.38;2.55;;;19.50;9.40;;;;;;5039297;28;20078;-77
2023/09/19 10:07:51;;;;;;;10.90;2.47;;;19.50;6.60;;;;;;5025122;28;20056;-76
2023/09/19 10:13:13;;;;;;;12.85;2.50;;;19.50;5.30;;;;;;5046348;28;20778;-76
2023/09/19 10:15:42;;;;;;;11.75;2.58;;;19.50;5.00;;;;;;5030190;28;20052;-76
2023/09/19 10:18:17;;;;;;;17.35;3.22;;;19.40;3.60;;;;;;5027762;28;20047;-76
2023/09/19 10:20:45;;;;;;;12.13;2.70;;;19.40;5.40;;;;;;5047953;28;20044;-76
2023/09/19 10:23:14;;;;;;;10.02;2.25;;;19.40;12.00;;;;;;5047837;28;20364;-76
2023/09/19 10:25:47;;;;;;;13.05;2.65;;;19.40;15.00;;;;;;5046686;28;21396;-76
2023/09/19 10:28:14;;;;;;;11.38;2.65;;;19.40;16.00;;;;;;5061114;28;20754;-76
2023/09/19 10:30:44;;;;;;;13.68;2.88;;;19.40;17.60;;;;;;5038429;28;20091;-76
2023/09/19 10:33:15;;;;;;;11.35;2.42;;;19.30;19.30;;;;;;5028508;28;20052;-76
2023/09/19 10:35:46;;;;;;;11.23;2.25;;;19.30;22.20;;;;;;5045683;28;20126;-76
2023/09/19 10:38:14;;;;;;;11.57;2.47;;;19.30;25.40;;;;;;5045743;28;20054;-76
2023/09/19 10:40:43;;;;;;;15.18;2.60;;;19.30;29.20;;;;;;5044999;28;20128;-77
2023/09/19 10:43:19;;;;;;;11.48;2.40;;;19.20;36.10;;;;;;5019999;28;20496;-75
2023/09/19 10:45:49;;;;;;;12.30;2.80;;;19.20;41.00;;;;;;5049483;28;20045;-76
2023/09/19 10:48:19;;;;;;;14.40;2.75;;;19.30;44.90;;;;;;5039364;28;20190;-77
2023/09/19 10:50:47;;;;;;;9.65;2.50;;;19.40;48.90;;;;;;5051420;28;20166;-76
2023/09/19 10:53:19;;;;;;;8.50;2.33;;;19.60;50.00;;;;;;5050112;28;20325;-75
2023/09/19 10:55:53;;;;;;;7.90;2.10;;;19.80;50.00;;;;;;5047733;28;20496;-76
2023/09/19 10:58:38;;;;;;;8.50;2.40;;;19.80;50.30;;;;;;5044950;28;20052;-76
2023/09/19 11:01:15;;;;;;;11.85;2.70;;;19.70;50.50;;;;;;5048030;28;20080;-76
2023/09/19 11:03:44;;;;;;;12.30;2.65;;;19.60;52.90;;;;;;5047400;28;20119;-75
2023/09/19 11:06:22;;;;;;;9.63;2.67;;;19.40;56.40;;;;;;5023951;28;20048;-76
2023/09/19 11:08:57;;;;;;;10.52;2.65;;;19.40;59.60;;;;;;5033006;28;20048;-76
2023/09/19 11:11:41;;;;;;;9.75;2.63;;;19.40;62.60;;;;;;5049648;28;20051;-77
2023/09/19 11:14:25;;;;;;;9.95;2.65;;;19.20;64.80;;;;;;5044559;28;20043;-77
2023/09/19 11:17:11;;;;;;;11.63;2.67;;;19.10;69.50;;;;;;5044644;28;20056;-77
2023/09/19 11:22:58;;;;;;;10.32;2.70;;;18.80;75.00;;;;;;5063967;28;20045;-77
2023/09/19 11:25:37;;;;;;;10.60;2.92;;;18.60;76.80;;;;;;5050322;28;20442;-77
2023/09/19 11:28:05;;;;;;;13.90;3.15;;;18.50;78.10;;;;;;5063477;28;20998;-77
2023/09/19 11:30:36;;;;;;;10.45;2.80;;;18.50;78.70;;;;;;5044092;28;20043;-77
2023/09/19 11:33:32;;;;;;;10.05;2.67;;;18.40;81.60;;;;;;5055055;28;20418;-78
2023/09/19 11:36:14;;;;;;;10.93;3.63;;;18.20;85.70;;;;;;5028847;28;20383;-77
2023/09/19 11:39:08;;;;;;;10.43;2.75;;;18.10;88.30;;;;;;5043794;28;20128;-77
2023/09/19 11:41:39;;;;;;;8.55;2.70;;;18.00;89.50;;;;;;5053622;28;20124;-77
2023/09/19 11:44:05;;;;;;;16.13;3.08;;;17.80;91.20;;;;;;5026917;28;20135;-77
2023/09/19 11:46:33;;;;;;;11.05;3.00;;;17.70;91.60;;;;;;5046428;28;20044;-77
2023/09/19 11:49:12;;;;;;;9.32;2.60;;;17.60;92.60;;;;;;5043668;28;20514;-77
2023/09/19 11:51:44;;;;;;;9.73;2.50;;;17.50;93.80;;;;;;5041329;28;20131;-77
2023/09/19 11:54:21;;;;;;;7.63;2.20;;;17.50;94.20;;;;;;5058721;28;20744;-77
2023/09/19 11:56:53;;;;;;;8.85;2.55;;;17.50;94.80;;;;;;5046583;28;20093;-76
2023/09/19 11:59:30;;;;;;;6.72;2.63;;;17.50;95.30;;;;;;5041453;28;20053;-76
2023/09/19 12:02:08;;;;;;;8.20;2.70;;;17.60;95.40;;;;;;5041898;28;20131;-76
2023/09/19 12:04:41;;;;;;;9.38;2.55;;;17.70;95.80;;;;;;5032743;28;20079;-76
2023/09/19 12:07:11;;;;;;;12.07;2.53;;;17.80;95.60;;;;;;5044110;28;20463;-76
2023/09/19 12:09:46;;;;;;;10.82;2.95;;;18.00;95.30;;;;;;5043129;28;20059;-76
2023/09/19 12:12:22;;;;;;;10.95;2.53;;;18.00;95.40;;;;;;4993670;28;20193;-76
2023/09/19 12:14:50;;;;;;;8.55;2.38;;;18.00;95.60;;;;;;5029030;28;20044;-75
2023/09/19 12:17:22;;;;;;;10.68;2.83;;;18.10;95.30;;;;;;5035639;28;20071;-76
2023/09/19 12:19:56;;;;;;;8.65;2.25;;;18.10;95.20;;;;;;5052101;28;20040;-75
2023/09/19 12:22:22;;;;;;;7.15;2.20;;;18.10;95.20;;;;;;5043086;28;20076;-75
2023/09/19 12:24:50;;;;;;;10.65;2.30;;;18.10;95.00;;;;;;5035190;28;20133;-75
2023/09/19 12:27:17;;;;;;;10.88;2.38;;;18.10;95.10;;;;;;5021332;28;20511;-75
2023/09/19 12:29:51;;;;;;;8.95;2.08;;;18.10;95.10;;;;;;5048905;28;20090;-76
2023/09/19 12:32:19;;;;;;;9.68;2.20;;;18.10;94.90;;;;;;5050313;28;20578;-75
2023/09/19 12:34:52;;;;;;;9.05;2.42;;;18.10;94.90;;;;;;5035110;28;20526;-75
2023/09/19 12:37:22;;;;;;;8.18;2.28;;;18.00;95.30;;;;;;5030666;28;20044;-75
2023/09/19 12:39:51;;;;;;;7.72;2.03;;;18.00;95.50;;;;;;5034490;28;20044;-76
2023/09/19 12:42:24;;;;;;;10.48;2.45;;;17.80;96.20;;;;;;5053726;28;20048;-76
2023/09/19 12:45:00;;;;;;;8.18;2.22;;;17.70;96.80;;;;;;5049238;28;20040;-75
2023/09/19 12:47:27;;;;;;;6.32;2.22;;;17.60;97.40;;;;;;5050807;28;20282;-75
2023/09/19 12:50:13;;;;;;;7.25;3.20;;;17.60;97.70;;;;;;5039225;28;20147;-76
2023/09/19 12:52:41;;;;;;;11.95;2.80;;;17.60;98.10;;;;;;5056338;28;21516;-75
2023/09/19 12:55:08;;;;;;;10.50;2.85;;;17.60;98.30;;;;;;5015881;28;20041;-74
2023/09/19 12:57:35;;;;;;;10.82;2.80;;;17.60;98.50;;;;;;5032956;28;20163;-76
2023/09/19 13:00:07;;;;;;;11.50;3.28;;;17.70;98.50;;;;;;5047903;28;20044;-76
2023/09/19 13:02:33;;;;;;;12.75;2.80;;;17.80;98.90;;;;;;5047534;28;20064;-76
2023/09/19 13:05:04;;;;;;;11.52;2.75;;;17.80;99.00;;;;;;5049039;28;20048;-75
2023/09/19 13:07:47;;;;;;;11.05;2.83;;;17.80;98.90;;;;;;5033458;28;20048;-76
2023/09/19 13:10:15;;;;;;;9.23;2.58;;;17.90;99.20;;;;;;5047684;28;20052;-76
2023/09/19 13:12:44;;;;;;;11.73;2.78;;;17.90;98.90;;;;;;5035363;28;20433;-76